Time;durP1;ratioP1;P1;durP2;ratioP2;P2;SDS_P1;SDS_P2;PMS_P1;PMS_P2;Temp;Humidity;BMP_temperature;BMP_pressure;BME280_temperature;BME280_humidity;BME280_pressure;Samples;Min_cycle;Max_cycle;Signal;HPM_P1;HPM_P2
2020/12/31 00:00:54;;;;;;;36.17;13.15;;;;;;;1.29;75.13;99382.00;4407105;32;20063;-74
2020/12/31 00:03:19;;;;;;;30.12;11.57;;;;;;;1.29;74.52;99373.69;4412127;32;20022;-76
2020/12/31 00:05:45;;;;;;;24.50;9.80;;;;;;;1.33;74.49;99385.53;4410368;32;20069;-76
2020/12/31 00:08:11;;;;;;;31.70;11.50;;;;;;;1.28;74.75;99386.75;4411601;32;20516;-75
2020/12/31 00:10:36;;;;;;;25.25;10.85;;;;;;;1.27;74.33;99376.87;4412190;32;20100;-74
2020/12/31 00:13:02;;;;;;;33.30;12.00;;;;;;;1.26;74.48;99369.72;4411985;32;20140;-76
2020/12/31 00:15:28;;;;;;;30.70;11.77;;;;;;;1.32;74.29;99376.41;4414650;32;20130;-76
2020/12/31 00:17:53;;;;;;;32.28;12.00;;;;;;;1.34;74.22;99385.13;4414105;32;20030;-76
2020/12/31 00:20:19;;;;;;;27.25;11.15;;;;;;;1.36;74.11;99385.50;4418363;32;20018;-74
2020/12/31 00:22:45;;;;;;;35.15;12.50;;;;;;;1.38;73.54;99385.09;4416803;32;20468;-74
2020/12/31 00:25:10;;;;;;;25.70;10.93;;;;;;;1.29;74.01;99382.78;4413747;32;20041;-74
2020/12/31 00:27:36;;;;;;;28.55;10.52;;;;;;;1.34;74.03;99387.88;4410697;32;20124;-76
2020/12/31 00:30:08;;;;;;;23.48;10.18;;;;;;;1.34;73.77;99385.13;4410368;32;20021;-74
2020/12/31 00:32:33;;;;;;;30.08;11.02;;;;;;;1.32;73.71;99384.72;4417373;32;20046;-73
2020/12/31 00:34:59;;;;;;;35.42;12.27;;;;;;;1.35;73.63;99386.69;4419355;26;20081;-75
2020/12/31 00:37:25;;;;;;;31.45;11.40;;;;;;;1.36;73.28;99379.97;4410714;32;20033;-75
2020/12/31 00:39:51;;;;;;;30.85;11.57;;;;;;;1.34;73.69;99378.78;4409986;32;20097;-75
2020/12/31 00:42:17;;;;;;;29.87;12.05;;;;;;;1.31;73.77;99374.03;4411213;32;20493;-76
2020/12/31 00:44:43;;;;;;;24.50;10.25;;;;;;;1.34;73.47;99384.31;4411094;32;20042;-78
2020/12/31 00:47:08;;;;;;;28.90;10.35;;;;;;;1.30;73.62;99383.56;4410664;32;20255;-77
2020/12/31 00:49:34;;;;;;;30.88;12.00;;;;;;;1.25;73.61;99376.47;4410097;32;20339;-74
2020/12/31 00:51:59;;;;;;;37.05;12.18;;;;;;;1.22;73.36;99371.75;4405709;32;20451;-74
2020/12/31 00:54:25;;;;;;;32.25;11.48;;;;;;;1.21;73.78;99375.72;4408810;32;20101;-76
2020/12/31 00:56:51;;;;;;;23.87;10.52;;;;;;;1.26;74.14;99380.06;4406561;32;20101;-78
2020/12/31 00:59:16;;;;;;;29.37;10.40;;;;;;;1.16;73.89;99361.50;4404710;32;20550;-74
2020/12/31 01:01:42;;;;;;;25.20;10.38;;;;;;;1.25;73.97;99381.22;4410270;32;20072;-77
2020/12/31 01:04:07;;;;;;;28.58;11.05;;;;;;;1.24;73.76;99374.13;4414542;32;20050;-74
2020/12/31 01:06:36;;;;;;;24.02;9.77;;;;;;;1.08;74.33;99380.19;4407121;32;20095;-76
2020/12/31 01:09:07;;;;;;;22.87;9.13;;;;;;;1.17;74.50;99374.97;4403561;32;20143;-75
2020/12/31 01:11:35;;;;;;;26.83;9.05;;;;;;;1.09;75.01;99378.19;4412664;32;20030;-75
2020/12/31 01:14:00;;;;;;;27.17;9.38;;;;;;;1.11;74.46;99381.38;4407546;32;20030;-74
2020/12/31 01:16:26;;;;;;;21.58;7.87;;;;;;;1.11;74.77;99379.34;4407502;32;20093;-77
2020/12/31 01:18:51;;;;;;;23.58;8.35;;;;;;;1.20;74.39;99384.44;4409015;32;20085;-76
2020/12/31 01:21:17;;;;;;;19.77;8.32;;;;;;;1.18;73.94;99376.56;4414160;32;20057;-75
2020/12/31 01:23:43;;;;;;;21.35;8.27;;;;;;;1.22;74.07;99373.72;4408663;32;20039;-75
2020/12/31 01:26:11;;;;;;;20.27;8.02;;;;;;;1.25;73.80;99379.25;4412376;32;20034;-76
2020/12/31 01:28:37;;;;;;;20.30;7.45;;;;;;;1.30;73.90;99381.59;4407109;32;20443;-75
2020/12/31 01:31:07;;;;;;;17.87;6.65;;;;;;;1.32;73.63;99381.19;4406527;32;20021;-76
2020/12/31 01:33:35;;;;;;;19.30;6.65;;;;;;;1.33;73.35;99378.00;4406093;32;20038;-77
2020/12/31 01:36:07;;;;;;;25.17;7.97;;;;;;;1.22;73.24;99377.28;4406407;32;20066;-79
2020/12/31 01:38:32;;;;;;;19.02;6.90;;;;;;;1.31;73.10;99388.69;4408986;32;20054;-74
2020/12/31 01:40:58;;;;;;;25.83;8.23;;;;;;;1.26;73.54;99386.34;4404807;32;20104;-75
2020/12/31 01:43:23;;;;;;;19.23;7.15;;;;;;;1.26;73.66;99380.06;4407497;32;20119;-75
2020/12/31 01:45:49;;;;;;;15.93;6.68;;;;;;;1.29;73.64;99379.22;4414197;32;20073;-77
2020/12/31 01:48:15;;;;;;;19.90;7.97;;;;;;;1.28;73.52;99383.97;4403773;32;20465;-75
2020/12/31 01:50:41;;;;;;;21.50;8.50;;;;;;;1.11;74.04;99378.59;4403882;32;20079;-74
2020/12/31 01:53:07;;;;;;;21.75;8.43;;;;;;;1.16;74.13;99381.69;4398006;32;20061;-76
2020/12/31 01:55:33;;;;;;;19.73;7.72;;;;;;;1.23;74.26;99380.88;4406016;32;20073;-74
2020/12/31 01:57:59;;;;;;;23.40;8.23;;;;;;;1.23;74.45;99387.19;4403534;32;20099;-79
2020/12/31 02:00:25;;;;;;;20.00;7.40;;;;;;;1.19;74.42;99382.84;4412299;32;20046;-78
2020/12/31 02:02:51;;;;;;;18.20;7.32;;;;;;;1.22;74.39;99376.50;4414574;32;20454;-76
2020/12/31 02:05:17;;;;;;;22.85;8.68;;;;;;;1.21;74.09;99383.25;4402612;32;20074;-76
2020/12/31 02:07:46;;;;;;;22.70;7.87;;;;;;;1.13;74.24;99376.97;4403622;32;20026;-76
2020/12/31 02:10:13;;;;;;;30.90;8.73;;;;;;;1.04;74.73;99368.34;4405530;32;20050;-77
2020/12/31 02:12:39;;;;;;;24.15;9.43;;;;;;;1.01;74.96;99371.94;4395533;32;20090;-76
2020/12/31 02:15:06;;;;;;;22.27;8.27;;;;;;;1.12;74.86;99374.63;4393313;32;20097;-75
2020/12/31 02:17:31;;;;;;;26.00;8.30;;;;;;;1.12;75.06;99378.19;4412829;32;20041;-76
2020/12/31 02:19:57;;;;;;;26.65;8.85;;;;;;;1.10;74.84;99380.56;4404941;32;20094;-77
2020/12/31 02:22:23;;;;;;;22.77;8.40;;;;;;;1.06;74.93;99381.78;4408636;32;20407;-75
2020/12/31 02:24:48;;;;;;;19.35;6.87;;;;;;;1.05;75.01;99374.69;4412465;32;20030;-77
2020/12/31 02:27:14;;;;;;;26.00;7.65;;;;;;;1.00;75.42;99370.38;4407240;32;20158;-76
2020/12/31 02:29:40;;;;;;;22.55;7.28;;;;;;;0.96;75.75;99371.59;4403654;32;20105;-75
2020/12/31 02:32:06;;;;;;;22.98;7.12;;;;;;;0.94;75.78;99374.75;4406716;32;20524;-78
2020/12/31 02:34:31;;;;;;;23.95;7.97;;;;;;;0.99;75.70;99379.88;4405356;32;20120;-75
2020/12/31 02:36:58;;;;;;;20.27;6.25;;;;;;;0.98;75.45;99367.19;4408065;32;20026;-77
2020/12/31 02:39:23;;;;;;;22.70;6.60;;;;;;;1.03;74.93;99371.53;4406963;32;20100;-76
2020/12/31 02:41:49;;;;;;;22.85;6.85;;;;;;;1.01;75.21;99377.47;4409185;32;20070;-75
2020/12/31 02:44:15;;;;;;;19.08;7.10;;;;;;;1.00;75.24;99375.09;4400542;32;20039;-76
2020/12/31 02:46:41;;;;;;;18.77;5.78;;;;;;;0.97;75.21;99381.44;4408288;32;20404;-76
2020/12/31 02:49:07;;;;;;;15.70;6.25;;;;;;;0.98;75.37;99381.06;4405107;32;20050;-76
2020/12/31 02:51:34;;;;;;;16.77;5.75;;;;;;;1.00;74.96;99381.44;4408289;32;20042;-75
2020/12/31 02:54:00;;;;;;;16.65;5.55;;;;;;;1.03;74.55;99383.41;4409210;32;20038;-76
2020/12/31 02:56:26;;;;;;;17.08;5.47;;;;;;;0.98;74.80;99380.28;4409391;32;20033;-76
2020/12/31 02:58:52;;;;;;;16.62;4.75;;;;;;;0.94;75.01;99383.06;4406207;32;20552;-77
2020/12/31 03:01:19;;;;;;;13.95;4.22;;;;;;;0.97;75.73;99385.03;4410213;32;20069;-75
2020/12/31 03:03:45;;;;;;;9.20;3.62;;;;;;;1.05;75.95;99380.22;4405264;32;20078;-75
2020/12/31 03:06:10;;;;;;;15.85;4.00;;;;;;;1.05;76.29;99372.72;4407368;32;20080;-78
2020/12/31 03:08:38;;;;;;;13.73;3.65;;;;;;;1.14;76.10;99381.31;4409181;32;20042;-76
2020/12/31 03:11:08;;;;;;;10.82;3.40;;;;;;;1.18;75.89;99376.56;4404765;32;20453;-75
2020/12/31 03:13:33;;;;;;;12.30;3.60;;;;;;;1.26;75.87;99389.13;4400463;32;20109;-77
2020/12/31 03:15:59;;;;;;;10.10;3.05;;;;;;;1.23;75.70;99376.09;4406161;32;20081;-76
2020/12/31 03:18:25;;;;;;;9.68;3.35;;;;;;;1.30;78.40;99369.72;4401332;32;20030;-78
2020/12/31 03:20:50;;;;;;;8.55;2.83;;;;;;;1.51;78.27;99373.06;4404560;32;20064;-75
2020/12/31 03:23:17;;;;;;;9.23;2.08;;;;;;;1.60;77.96;99370.59;4407708;32;20030;-77
2020/12/31 03:25:44;;;;;;;6.50;2.33;;;;;;;1.61;78.34;99355.56;4404075;32;20037;-76
2020/12/31 03:28:10;;;;;;;8.30;2.20;;;;;;;1.79;78.63;99369.22;4405273;32;20138;-76
2020/12/31 03:30:40;;;;;;;7.93;2.37;;;;;;;1.95;77.89;99372.22;4411441;32;20076;-74
2020/12/31 03:33:06;;;;;;;9.90;2.80;;;;;;;2.03;77.24;99374.47;4411484;32;20100;-75
2020/12/31 03:35:33;;;;;;;9.48;2.58;;;;;;;2.08;76.39;99370.47;4407122;32;20102;-74
2020/12/31 03:37:59;;;;;;;10.20;2.90;;;;;;;2.11;75.58;99366.84;4407522;32;20042;-77
2020/12/31 03:40:24;;;;;;;6.45;2.47;;;;;;;2.08;74.73;99380.78;4408576;32;20200;-77
2020/12/31 03:42:50;;;;;;;10.68;2.62;;;;;;;2.05;74.21;99382.38;4406960;32;20026;-75
2020/12/31 03:45:16;;;;;;;9.35;2.17;;;;;;;2.01;74.65;99370.56;4408051;32;20325;-76
2020/12/31 03:47:42;;;;;;;10.35;2.58;;;;;;;2.00;74.96;99372.53;4405997;32;20415;-76
2020/12/31 03:50:08;;;;;;;9.02;3.12;;;;;;;1.99;75.23;99376.50;4410381;32;20042;-76
2020/12/31 03:52:34;;;;;;;9.13;3.08;;;;;;;1.97;75.33;99376.13;4410038;32;20167;-76
2020/12/31 03:55:00;;;;;;;10.45;4.18;;;;;;;1.87;75.08;99368.72;4406262;32;20108;-75
2020/12/31 03:57:25;;;;;;;8.07;3.33;;;;;;;1.87;75.37;99376.25;4402153;32;20427;-78
2020/12/31 03:59:51;;;;;;;8.88;3.05;;;;;;;1.69;75.62;99378.44;4390317;32;20065;-77
2020/12/31 04:02:17;;;;;;;8.05;2.90;;;;;;;1.62;75.94;99378.50;4404292;32;20038;-76
2020/12/31 04:04:42;;;;;;;10.43;2.40;;;;;;;1.65;75.12;99372.94;4405048;32;20070;-77
2020/12/31 04:07:08;;;;;;;8.65;2.87;;;;;;;1.66;74.75;99360.63;4401545;32;20115;-77
2020/12/31 04:09:35;;;;;;;11.05;3.00;;;;;;;1.49;75.23;99356.06;4405116;32;20416;-75
2020/12/31 04:12:01;;;;;;;9.10;3.00;;;;;;;1.42;75.94;99355.34;4405984;32;20041;-74
2020/12/31 04:14:27;;;;;;;7.82;2.70;;;;;;;1.31;76.26;99355.44;4408368;32;20033;-75
2020/12/31 04:16:53;;;;;;;7.80;2.70;;;;;;;1.06;76.98;99334.69;4403990;32;20046;-76
2020/12/31 04:19:18;;;;;;;9.40;2.80;;;;;;;1.20;77.46;99356.75;4405742;32;20034;-75
2020/12/31 04:21:44;;;;;;;8.57;3.00;;;;;;;1.18;77.17;99354.38;4407924;32;20094;-78
2020/12/31 04:24:10;;;;;;;9.13;2.90;;;;;;;1.20;77.31;99351.22;4407702;32;20074;-76
2020/12/31 04:26:35;;;;;;;10.68;3.50;;;;;;;1.19;76.93;99355.16;4407639;32;20085;-76
2020/12/31 04:29:02;;;;;;;12.60;3.45;;;;;;;1.18;77.26;99353.59;4403407;32;20038;-79
2020/12/31 04:31:28;;;;;;;10.68;3.67;;;;;;;1.11;77.84;99359.97;4405381;32;20440;-75
2020/12/31 04:33:54;;;;;;;16.02;3.20;;;;;;;1.15;77.73;99354.41;4393674;32;20066;-78
2020/12/31 04:36:19;;;;;;;9.93;2.75;;;;;;;1.07;78.33;99350.12;4403618;32;20119;-74
2020/12/31 04:38:45;;;;;;;9.05;2.67;;;;;;;1.11;78.82;99359.19;4407576;32;20104;-77
2020/12/31 04:41:12;;;;;;;10.20;2.80;;;;;;;1.14;79.10;99361.91;4408575;32;20095;-77
2020/12/31 04:43:38;;;;;;;6.82;2.53;;;;;;;1.22;79.05;99360.69;4402488;32;20112;-74
2020/12/31 04:46:08;;;;;;;8.45;2.92;;;;;;;1.32;79.06;99353.47;4402333;32;20038;-76
2020/12/31 04:48:39;;;;;;;8.52;2.78;;;;;;;1.32;78.89;99351.47;4403827;32;20041;-74
2020/12/31 04:51:07;;;;;;;7.95;2.55;;;;;;;1.37;79.23;99353.81;4405528;32;20033;-74
2020/12/31 04:53:34;;;;;;;8.77;2.75;;;;;;;1.45;79.26;99349.00;4405745;32;20093;-77
2020/12/31 04:56:02;;;;;;;9.57;2.60;;;;;;;1.54;79.10;99352.06;4411759;32;20053;-74
2020/12/31 04:58:27;;;;;;;5.62;2.72;;;;;;;1.52;77.72;99344.16;4413479;32;20041;-75
2020/12/31 05:00:53;;;;;;;6.28;2.37;;;;;;;1.55;77.89;99340.56;4408304;32;20484;-75
2020/12/31 05:03:19;;;;;;;8.20;2.62;;;;;;;1.50;77.58;99342.97;4407311;32;20085;-76
2020/12/31 05:05:45;;;;;;;9.40;3.15;;;;;;;1.46;77.90;99345.81;4405610;32;20455;-76
2020/12/31 05:08:11;;;;;;;14.57;2.53;;;;;;;1.56;77.82;99352.41;4406010;32;20082;-78
2020/12/31 05:10:38;;;;;;;6.80;2.83;;;;;;;1.44;77.72;99333.56;4402949;32;20037;-76
2020/12/31 05:13:07;;;;;;;8.70;2.75;;;;;;;1.55;77.68;99357.19;4407537;32;20423;-76
2020/12/31 05:21:00;;;;;;;9.35;2.60;;;;;;;1.96;76.25;99368.22;3984281;32;15024435;-76
2020/12/31 05:23:28;;;;;;;7.57;2.75;;;;;;;1.96;76.25;99368.22;4439250;32;20022;-74
2020/12/31 05:25:55;;;;;;;6.55;2.72;;;;;;;1.54;77.42;99363.91;4441984;32;20069;-73
2020/12/31 05:33:33;;;;;;;7.47;2.62;;;;;;;1.97;75.81;99370.59;3988633;32;15029336;-75
2020/12/31 05:36:23;;;;;;;7.37;3.08;;;;;;;1.47;76.77;99365.97;4440325;32;20013;-78
2020/12/31 05:41:36;;;;;;;8.82;3.42;;;;;;;1.44;77.80;99364.81;3991259;31;15707858;-74
2020/12/31 05:46:38;;;;;;;7.30;3.20;;;;;;;1.48;78.15;99360.03;3984868;32;15033044;-74
2020/12/31 05:49:08;;;;;;;9.82;3.80;;;;;;;1.42;77.86;99358.91;4430622;32;20072;-75
2020/12/31 05:51:39;;;;;;;11.90;3.50;;;;;;;1.31;77.87;99355.44;4434866;32;20022;-76
2020/12/31 05:54:09;;;;;;;10.00;3.97;;;;;;;1.25;78.08;99354.31;4440516;32;20482;-74
2020/12/31 05:56:36;;;;;;;6.70;3.12;;;;;;;1.30;78.32;99361.41;4432775;32;20157;-73
2020/12/31 05:59:13;;;;;;;10.50;3.83;;;;;;;1.34;78.12;99353.84;4437562;32;20029;-74
2020/12/31 06:01:55;;;;;;;8.07;3.78;;;;;;;1.37;77.64;99356.59;4431696;32;20121;-74
2020/12/31 06:07:31;;;;;;;10.77;3.37;;;;;;;1.40;77.88;99357.75;3985766;32;15024781;-73
2020/12/31 06:10:04;;;;;;;7.57;3.65;;;;;;;1.32;77.43;99354.25;4443521;32;20116;-75
2020/12/31 06:12:41;;;;;;;10.07;3.70;;;;;;;1.34;77.51;99356.59;4444326;32;20026;-76
2020/12/31 06:15:09;;;;;;;8.80;3.47;;;;;;;1.33;77.26;99355.03;4443892;32;20345;-74
2020/12/31 06:17:46;;;;;;;8.82;4.25;;;;;;;1.30;77.36;99367.75;4436981;32;20414;-78
2020/12/31 06:20:14;;;;;;;7.72;4.05;;;;;;;1.24;77.41;99366.59;4437349;32;20025;-74
2020/12/31 06:30:50;;;;;;;13.82;4.72;;;;;;;1.61;78.35;99383.28;3985745;32;15022312;-78
2020/12/31 06:35:58;;;;;;;11.27;4.55;;;;;;;1.22;79.21;99380.06;3987297;32;15025406;-76
2020/12/31 06:38:45;;;;;;;18.85;6.32;;;;;;;1.11;79.29;99390.44;4441278;32;20417;-78
2020/12/31 06:46:45;;;;;;;11.70;5.40;;;;;;;1.47;78.67;99386.19;3964400;32;15022519;-75
2020/12/31 06:49:11;;;;;;;15.95;6.20;;;;;;;1.47;78.67;99386.19;4412778;32;20034;-76
2020/12/31 06:51:38;;;;;;;13.60;5.12;;;;;;;1.08;79.77;99382.97;4416069;32;20060;-74
2020/12/31 06:54:04;;;;;;;13.82;5.40;;;;;;;1.01;79.49;99388.53;4416712;32;20093;-76
2020/12/31 06:56:50;;;;;;;12.18;5.47;;;;;;;0.99;79.30;99379.06;4417351;32;20014;-79
2020/12/31 06:59:25;;;;;;;15.10;5.55;;;;;;;0.83;79.92;99376.81;4410970;32;20129;-77
2020/12/31 07:01:51;;;;;;;12.50;5.20;;;;;;;0.92;80.08;99390.22;4415444;32;20044;-74
2020/12/31 07:04:34;;;;;;;18.95;6.40;;;;;;;0.92;80.36;99390.97;4418076;32;20034;-75
2020/12/31 07:07:02;;;;;;;17.73;6.18;;;;;;;0.98;79.71;99394.91;4411723;32;20026;-77
2020/12/31 07:09:31;;;;;;;14.80;5.70;;;;;;;1.03;79.97;99385.38;4413998;32;20758;-78
2020/12/31 07:12:00;;;;;;;19.42;6.45;;;;;;;1.02;80.39;99387.38;4417949;32;20139;-76
2020/12/31 07:14:27;;;;;;;17.75;5.95;;;;;;;1.10;80.41;99399.94;4415048;32;20066;-74
2020/12/31 07:22:17;;;;;;;14.75;5.97;;;;;;;1.68;78.74;99408.16;3960854;32;15727573;-76
2020/12/31 07:38:05;;;;;;;14.02;5.45;;;;;;;1.90;77.15;99428.13;3984065;32;15029289;-76
2020/12/31 07:40:51;;;;;;;11.80;5.12;;;;;;;1.90;77.15;99428.13;4435874;32;20025;-75
2020/12/31 07:43:18;;;;;;;18.42;5.62;;;;;;;1.46;78.08;99431.72;4438826;32;20029;-74
2020/12/31 07:45:47;;;;;;;13.15;4.37;;;;;;;1.40;78.25;99427.81;4435983;32;20134;-74
2020/12/31 07:48:13;;;;;;;11.63;4.93;;;;;;;1.26;78.05;99424.38;4435009;32;20026;-76
2020/12/31 07:50:42;;;;;;;11.70;4.95;;;;;;;1.34;78.24;99420.34;4438944;32;20068;-77
2020/12/31 07:53:09;;;;;;;11.35;4.40;;;;;;;1.30;78.16;99417.62;4438336;32;20045;-77
2020/12/31 07:55:35;;;;;;;15.07;5.37;;;;;;;1.31;77.72;99435.00;4437328;32;20594;-78
2020/12/31 07:58:02;;;;;;;14.27;4.32;;;;;;;1.35;77.89;99425.47;4434060;32;20034;-74
2020/12/31 08:00:28;;;;;;;17.40;5.15;;;;;;;1.38;77.76;99427.44;4432040;32;20064;-77
2020/12/31 08:02:55;;;;;;;11.10;4.25;;;;;;;1.41;77.31;99440.47;4437095;32;20034;-76
2020/12/31 08:05:24;;;;;;;15.43;6.90;;;;;;;1.47;77.39;99452.69;4432147;32;20052;-75
2020/12/31 08:07:52;;;;;;;8.23;4.30;;;;;;;1.48;76.78;99442.41;4434972;32;20104;-74
2020/12/31 08:10:18;;;;;;;11.45;4.65;;;;;;;1.50;76.36;99446.34;4433863;32;20065;-79
2020/12/31 08:12:53;;;;;;;10.20;5.43;;;;;;;1.50;76.08;99446.34;4436848;32;20056;-75
2020/12/31 08:15:21;;;;;;;13.95;5.35;;;;;;;1.55;75.19;99447.88;4439293;32;20441;-77
2020/12/31 08:17:50;;;;;;;10.40;4.53;;;;;;;1.54;75.59;99447.09;4436906;32;20474;-74
2020/12/31 08:20:18;;;;;;;14.82;5.55;;;;;;;1.55;75.19;99445.09;4432766;32;20343;-77
2020/12/31 08:22:49;;;;;;;15.02;7.60;;;;;;;1.48;75.23;99443.19;4437126;32;20022;-74
2020/12/31 08:25:20;;;;;;;13.45;5.55;;;;;;;1.46;75.63;99442.81;4436172;32;20467;-74
2020/12/31 08:27:46;;;;;;;14.55;5.70;;;;;;;1.45;75.82;99443.22;4436279;32;20552;-75
2020/12/31 08:30:12;;;;;;;16.80;6.78;;;;;;;1.37;75.96;99441.69;4439647;32;20073;-75
2020/12/31 08:32:55;;;;;;;15.40;5.37;;;;;;;1.33;76.10;99443.72;4434627;32;20058;-77
2020/12/31 08:38:02;;;;;;;13.48;4.85;;;;;;;1.34;76.80;99437.75;3987643;32;15024103;-76
2020/12/31 08:40:30;;;;;;;12.45;5.05;;;;;;;1.34;77.05;99439.75;4438869;32;20017;-76
2020/12/31 08:42:57;;;;;;;11.77;6.25;;;;;;;1.32;76.35;99431.84;4440263;32;20037;-77
2020/12/31 08:51:02;;;;;;;14.68;6.32;;;;;;;2.06;75.38;99443.00;3985079;31;15017696;-78
2020/12/31 08:53:28;;;;;;;15.43;5.90;;;;;;;2.06;75.38;99443.00;4433074;32;20060;-78
2020/12/31 08:55:55;;;;;;;11.00;5.15;;;;;;;1.65;76.02;99444.22;4434022;32;20123;-73
2020/12/31 08:58:27;;;;;;;14.20;5.82;;;;;;;1.64;76.20;99446.22;4433321;32;20033;-78
2020/12/31 09:00:53;;;;;;;12.75;6.20;;;;;;;1.66;75.68;99446.59;4432381;32;20018;-77
2020/12/31 09:03:19;;;;;;;13.40;5.55;;;;;;;1.69;76.19;99448.53;4434401;32;20086;-77
2020/12/31 09:06:02;;;;;;;16.30;7.05;;;;;;;1.70;75.96;99455.69;4430363;32;20059;-75
2020/12/31 09:08:30;;;;;;;17.05;8.50;;;;;;;1.74;76.38;99453.66;4432308;32;20165;-77
2020/12/31 09:11:05;;;;;;;15.02;6.75;;;;;;;1.78;76.78;99453.63;4433608;32;20069;-76
2020/12/31 09:13:39;;;;;;;15.32;6.03;;;;;;;1.80;76.51;99454.78;4433269;32;20041;-77
2020/12/31 09:16:07;;;;;;;11.85;5.55;;;;;;;1.85;76.45;99457.09;4431965;32;20403;-74
2020/12/31 09:18:32;;;;;;;14.63;6.03;;;;;;;1.86;76.66;99455.91;4430680;32;20402;-79
2020/12/31 09:20:58;;;;;;;12.13;6.00;;;;;;;1.81;76.84;99447.25;4431486;32;20497;-75
2020/12/31 09:23:24;;;;;;;18.50;6.30;;;;;;;1.88;77.54;99453.50;4435176;32;20025;-74
2020/12/31 09:25:50;;;;;;;17.75;7.28;;;;;;;1.99;77.65;99451.41;4432641;32;20049;-75
2020/12/31 09:28:17;;;;;;;20.10;8.40;;;;;;;2.12;77.61;99460.78;4432589;32;20029;-76
2020/12/31 09:30:44;;;;;;;20.17;8.00;;;;;;;2.18;77.56;99446.47;4433638;32;20037;-75
2020/12/31 09:33:15;;;;;;;17.65;8.57;;;;;;;2.28;77.55;99462.22;4428323;32;20061;-77
2020/12/31 09:35:41;;;;;;;16.92;7.53;;;;;;;2.41;77.18;99455.72;4420035;32;20069;-75
2020/12/31 09:38:07;;;;;;;15.93;7.53;;;;;;;2.56;77.19;99453.53;4419813;32;20100;-77
2020/12/31 09:40:33;;;;;;;21.33;8.82;;;;;;;2.73;76.63;99463.66;4417410;32;20022;-77
2020/12/31 09:42:59;;;;;;;19.02;8.73;;;;;;;2.76;75.82;99471.91;4417851;32;20099;-76
2020/12/31 09:45:25;;;;;;;26.92;10.77;;;;;;;2.89;75.85;99464.62;4417467;32;20029;-77
2020/12/31 09:47:51;;;;;;;18.08;9.70;;;;;;;2.97;75.70;99473.63;4415923;32;20759;-75
2020/12/31 09:50:17;;;;;;;21.85;10.82;;;;;;;3.23;75.48;99470.88;4414168;32;20085;-75
2020/12/31 09:52:43;;;;;;;14.27;6.95;;;;;;;3.42;74.79;99472.16;4419683;32;20026;-78
2020/12/31 09:55:08;;;;;;;18.98;7.40;;;;;;;3.72;74.27;99469.28;4422212;32;20112;-76
2020/12/31 09:57:35;;;;;;;19.30;7.80;;;;;;;4.09;73.78;99478.16;4417000;32;20418;-74
2020/12/31 10:00:03;;;;;;;13.60;6.70;;;;;;;4.42;72.85;99479.12;4414900;32;20064;-74
2020/12/31 10:02:29;;;;;;;18.35;8.73;;;;;;;4.74;72.20;99486.84;4407038;32;20443;-74
2020/12/31 10:04:55;;;;;;;16.83;8.40;;;;;;;5.02;70.63;99489.03;4408532;32;20034;-77
2020/12/31 10:07:20;;;;;;;16.05;8.05;;;;;;;5.20;69.13;99492.22;4402839;32;20580;-76
2020/12/31 10:09:46;;;;;;;21.02;9.02;;;;;;;5.28;68.48;99502.78;4410159;32;20113;-77
2020/12/31 10:12:13;;;;;;;14.43;7.35;;;;;;;5.35;67.99;99499.84;4407540;32;20061;-75
2020/12/31 10:14:39;;;;;;;17.80;7.95;;;;;;;5.59;68.58;99501.25;4407545;32;20483;-76
2020/12/31 10:17:06;;;;;;;12.98;7.45;;;;;;;5.75;67.42;99501.28;4404959;32;20546;-74
2020/12/31 10:19:32;;;;;;;18.73;9.55;;;;;;;5.83;66.63;99508.28;4402464;32;20081;-75
2020/12/31 10:21:57;;;;;;;16.37;7.93;;;;;;;5.87;66.44;99517.34;4409262;32;20435;-75
2020/12/31 10:24:23;;;;;;;16.65;7.87;;;;;;;5.96;66.98;99520.31;4403022;32;20072;-75
2020/12/31 10:26:49;;;;;;;16.73;8.50;;;;;;;6.15;65.73;99518.66;4407172;32;20068;-76
2020/12/31 10:29:15;;;;;;;17.05;8.30;;;;;;;6.29;65.03;99520.28;4407942;32;20103;-75
2020/12/31 10:31:42;;;;;;;20.62;8.82;;;;;;;6.36;65.54;99520.87;4405587;32;20026;-74
2020/12/31 10:34:09;;;;;;;14.93;7.90;;;;;;;6.47;64.92;99520.59;4410323;32;20061;-78
2020/12/31 10:36:35;;;;;;;20.65;9.55;;;;;;;6.56;64.23;99513.13;4405879;32;20021;-75
2020/12/31 10:39:02;;;;;;;17.15;9.10;;;;;;;6.73;64.36;99516.69;4405830;32;20120;-76
2020/12/31 10:41:29;;;;;;;18.95;8.43;;;;;;;6.87;63.79;99521.87;4406850;32;20534;-76
2020/12/31 10:43:57;;;;;;;15.75;8.20;;;;;;;6.98;63.95;99513.94;4409036;32;20208;-76
2020/12/31 10:46:25;;;;;;;15.80;7.35;;;;;;;7.03;63.02;99514.19;4405330;32;20042;-77
2020/12/31 10:48:51;;;;;;;36.40;9.05;;;;;;;6.96;62.99;99511.59;4403007;32;20080;-77
2020/12/31 10:51:17;;;;;;;16.05;7.45;;;;;;;6.97;62.60;99515.94;4410255;32;20436;-75
2020/12/31 10:53:43;;;;;;;16.67;7.22;;;;;;;6.98;63.17;99513.94;4408230;32;20081;-77
2020/12/31 10:56:08;;;;;;;16.67;6.97;;;;;;;7.00;63.06;99505.91;4403404;32;20046;-76
2020/12/31 10:58:35;;;;;;;7.75;4.20;;;;;;;7.01;63.47;99513.84;4405433;32;20038;-75
2020/12/31 11:01:02;;;;;;;10.30;4.80;;;;;;;6.96;62.95;99522.03;4406511;32;20105;-76
2020/12/31 11:03:27;;;;;;;9.23;4.47;;;;;;;7.04;63.22;99514.97;4406991;32;20030;-75
2020/12/31 11:05:53;;;;;;;6.15;3.37;;;;;;;7.08;62.46;99507.25;4405549;32;20410;-77
2020/12/31 11:08:19;;;;;;;7.00;3.65;;;;;;;7.13;63.25;99509.50;4406477;32;20473;-77
2020/12/31 11:10:47;;;;;;;5.87;2.25;;;;;;;7.19;62.21;99516.91;4405437;32;20076;-79
2020/12/31 11:13:13;;;;;;;6.07;2.60;;;;;;;7.15;62.29;99499.44;4406248;32;20382;-75
2020/12/31 11:15:39;;;;;;;6.12;2.40;;;;;;;7.19;62.55;99505.72;4403778;32;20439;-75
2020/12/31 11:18:05;;;;;;;6.07;2.67;;;;;;;7.17;61.81;99501.78;4406226;32;20023;-76
2020/12/31 11:20:31;;;;;;;10.50;2.87;;;;;;;7.27;62.21;99506.31;4409152;32;20076;-76
2020/12/31 11:22:57;;;;;;;9.85;4.35;;;;;;;7.32;62.29;99509.31;4408753;32;20546;-77
2020/12/31 11:25:22;;;;;;;9.70;2.58;;;;;;;7.41;62.05;99515.03;4407705;32;20033;-75
2020/12/31 11:27:48;;;;;;;6.35;2.80;;;;;;;7.50;61.81;99519.97;4402352;32;20462;-77
2020/12/31 11:30:14;;;;;;;8.35;3.35;;;;;;;7.39;61.48;99520.28;4407930;32;20084;-75
2020/12/31 11:32:39;;;;;;;5.03;1.95;;;;;;;7.53;61.45;99533.84;4408858;32;20383;-74
2020/12/31 11:35:06;;;;;;;13.43;3.78;;;;;;;7.41;61.06;99528.25;4407082;32;20522;-74
2020/12/31 11:37:32;;;;;;;6.53;3.05;;;;;;;7.45;62.21;99526.91;4407227;32;20042;-75
2020/12/31 11:39:58;;;;;;;5.93;2.72;;;;;;;7.71;61.87;99522.09;4400850;32;20065;-76
2020/12/31 11:42:24;;;;;;;6.25;2.58;;;;;;;7.69;60.45;99522.53;4406547;32;20419;-75
2020/12/31 11:44:49;;;;;;;7.37;2.65;;;;;;;7.67;60.46;99524.25;4411928;32;20076;-76
2020/12/31 11:47:15;;;;;;;4.07;1.95;;;;;;;7.53;61.17;99524.66;4409429;32;20439;-78
2020/12/31 11:49:41;;;;;;;5.82;1.90;;;;;;;7.75;60.52;99520.75;4400292;32;20526;-77
2020/12/31 11:52:06;;;;;;;4.05;2.45;;;;;;;7.68;60.23;99523.00;4406356;32;20538;-77
2020/12/31 11:54:32;;;;;;;5.07;2.33;;;;;;;7.73;60.59;99528.00;4411071;32;20393;-75
2020/12/31 11:56:58;;;;;;;3.83;2.20;;;;;;;8.00;60.63;99528.34;4406044;32;20105;-79
2020/12/31 11:59:23;;;;;;;4.28;2.40;;;;;;;8.26;60.03;99535.50;4406183;32;20438;-79
2020/12/31 12:01:50;;;;;;;4.12;1.60;;;;;;;8.24;59.08;99535.16;4405043;32;20661;-77
2020/12/31 12:04:17;;;;;;;4.43;1.60;;;;;;;8.37;58.65;99524.69;4407757;32;20522;-78
2020/12/31 12:06:58;;;;;;;3.37;1.42;;;;;;;8.36;58.87;99534.34;4409010;32;20483;-75
2020/12/31 12:09:24;;;;;;;2.37;1.08;;;;;;;8.27;58.19;99537.06;4406663;32;20034;-78
2020/12/31 12:11:49;;;;;;;4.05;1.35;;;;;;;8.36;57.68;99539.97;4407423;32;20042;-76
2020/12/31 12:14:16;;;;;;;2.58;1.42;;;;;;;8.48;57.82;99530.72;4403199;32;20045;-74
2020/12/31 12:16:46;;;;;;;2.12;1.20;;;;;;;8.63;57.77;99531.00;4401639;32;20075;-78
2020/12/31 12:19:12;;;;;;;2.97;0.73;;;;;;;8.56;57.55;99534.84;4401968;32;20265;-79
2020/12/31 12:21:37;;;;;;;7.00;2.35;;;;;;;8.71;57.60;99532.34;4402956;32;20489;-76
2020/12/31 12:24:05;;;;;;;1.87;0.88;;;;;;;8.52;58.03;99533.41;4404115;32;20098;-75
2020/12/31 12:26:33;;;;;;;2.30;0.60;;;;;;;8.50;57.35;99531.03;4404520;32;20445;-77
2020/12/31 12:28:59;;;;;;;4.25;0.75;;;;;;;8.35;57.83;99541.22;4404986;32;20046;-77
2020/12/31 12:31:34;;;;;;;5.12;1.50;;;;;;;8.50;57.74;99536.66;4406543;32;20052;-75
2020/12/31 12:34:01;;;;;;;5.03;1.48;;;;;;;8.24;58.22;99531.56;4406510;32;20091;-75
2020/12/31 12:36:27;;;;;;;2.08;1.12;;;;;;;8.38;58.67;99528.28;4406920;32;20073;-77